Terminal Aerodrome Forecast
Issued by NWS Charleston, SC

Home | Current Version | Previous Version | Text Only | Print | Product List | Glossary On
Versions: 1 2 3 4 5 6 7 8 9 10 11 12 13 14 15 16
821
FTUS42 KCHS 230530
TAFCHS
TAF
KCHS 230530Z 2306/2406 03003KT 5SM BR SKC
      TEMPO 2309/2313 3SM BR SCT004
     FM231400 05006KT P6SM SCT050
     FM232200 10009KT P6SM FEW040=

USA.gov is the U.S. government's official web portal to all federal, state and local government web resources and services.